CheckWX is a tool to help pilots better visualize weather data.  It is not intended as a substitute for an official pre-flight weather briefing.

06:08:23 UTC

KOXR TAF
Oxnard Airport
Oxnard, California, USA
KOXR 260538Z 2606/2706 VRB03KT P6SM OVC025 FM261100 VRB03KT 6SM -DZ BR BKN008 OVC021 FM261600 VRB03KT P6SM OVC025 FM262100 26010KT P6SM OVC025 FM270300 27005KT P6SM OVC017

Jun-26@
06:00 UTC

Jun-26 @ 06:00 UTC

Jun-26@
11:00 UTC

Jun-26 @ 11:00 UTC

KOXR 260538Z 2606/2706 VRB03KT P6SM OVC025
Wind
  • Variable at 3 KTS
Cloud Levels
  • Overcast at 2,500' AGL

Jun-26@
11:00 UTC

Jun-26 @ 11:00 UTC

Jun-26@
16:00 UTC

Jun-26 @ 16:00 UTC

FM261100 VRB03KT 6SM -DZ BR BKN008 OVC021

From

From Standard forecast or significant change

Wind
  • Variable at 3 KTS
Conditions
Light Drizzle, Mist
Cloud Levels
  • Broken at 800' AGL
  • Overcast at 2,100' AGL

Jun-26@
16:00 UTC

Jun-26 @ 16:00 UTC

Jun-26@
21:00 UTC

Jun-26 @ 21:00 UTC

FM261600 VRB03KT P6SM OVC025

From

From Standard forecast or significant change

Wind
  • Variable at 3 KTS
Cloud Levels
  • Overcast at 2,500' AGL

Jun-26@
21:00 UTC

Jun-26 @ 21:00 UTC

Jun-27@
03:00 UTC

Jun-27 @ 03:00 UTC

FM262100 26010KT P6SM OVC025

From

From Standard forecast or significant change

Wind
  • 260° at 10 KTS
Cloud Levels
  • Overcast at 2,500' AGL

Jun-27@
03:00 UTC

Jun-27 @ 03:00 UTC

Jun-27@
06:00 UTC

Jun-27 @ 06:00 UTC

FM270300 27005KT P6SM OVC017

From

From Standard forecast or significant change

Wind
  • 270° at 5 KTS
Cloud Levels
  • Overcast at 1,700' AGL